Time;durP1;ratioP1;P1;durP2;ratioP2;P2;SDS_P1;SDS_P2;PMS_P1;PMS_P2;Temp;Humidity;BMP_temperature;BMP_pressure;BME280_temperature;BME280_humidity;BME280_pressure;Samples;Min_cycle;Max_cycle;Signal;HPM_P1;HPM_P2
2023/08/13 00:02:13;;;;;;;4.10;1.63;;;;;;;26.07;45.03;101508.13;5048959;28;20034;-66
2023/08/13 00:04:38;;;;;;;7.68;1.75;;;;;;;26.05;45.20;101507.47;5032232;28;20533;-67
2023/08/13 00:07:04;;;;;;;9.68;1.48;;;;;;;26.04;45.44;101514.91;5033561;28;20052;-68
2023/08/13 00:09:29;;;;;;;5.13;1.75;;;;;;;26.04;44.96;101512.16;5032220;28;20038;-66
2023/08/13 00:11:54;;;;;;;5.25;2.08;;;;;;;26.04;45.20;101503.91;5033464;28;20045;-66
2023/08/13 00:14:20;;;;;;;5.35;1.50;;;;;;;26.02;45.48;101500.53;5033411;28;20029;-66
2023/08/13 00:16:47;;;;;;;8.13;1.30;;;;;;;26.00;45.40;101502.66;5033488;28;20164;-66
2023/08/13 00:19:12;;;;;;;9.32;1.80;;;;;;;26.00;44.93;101501.78;5048998;28;20042;-65
2023/08/13 00:21:38;;;;;;;4.35;1.67;;;;;;;25.98;45.38;101510.25;5033270;28;20065;-66
2023/08/13 00:24:03;;;;;;;6.70;2.00;;;;;;;25.98;44.90;101504.78;5048885;28;20033;-66
2023/08/13 00:26:29;;;;;;;7.45;2.00;;;;;;;25.97;44.67;101507.72;5032054;28;20075;-66
2023/08/13 00:28:54;;;;;;;3.92;1.50;;;;;;;25.96;45.05;101506.03;5032108;28;20071;-66
2023/08/13 00:31:19;;;;;;;4.97;1.80;;;;;;;25.94;44.97;101498.00;5033577;28;20064;-68
2023/08/13 00:33:45;;;;;;;10.90;1.45;;;;;;;25.93;45.08;101507.31;5031885;28;20026;-65
2023/08/13 00:36:10;;;;;;;5.85;1.55;;;;;;;25.91;45.20;101503.91;4996069;28;20030;-66
2023/08/13 00:38:35;;;;;;;4.45;2.25;;;;;;;25.89;45.52;101500.53;5013471;28;20190;-68
2023/08/13 00:41:01;;;;;;;4.75;1.95;;;;;;;25.85;45.41;101499.28;5032672;28;20531;-68
2023/08/13 00:43:26;;;;;;;9.05;2.17;;;;;;;25.85;45.42;101502.00;5031860;28;20057;-66
2023/08/13 00:45:52;;;;;;;5.53;1.73;;;;;;;25.84;45.27;101507.72;5012326;28;20034;-66
2023/08/13 00:48:17;;;;;;;5.85;1.52;;;;;;;25.82;45.10;101507.97;5031853;28;20033;-66
2023/08/13 00:50:43;;;;;;;5.50;1.63;;;;;;;25.81;45.04;101502.66;5031414;28;20412;-66
2023/08/13 00:53:10;;;;;;;8.27;2.25;;;;;;;25.74;45.49;101491.69;5031751;28;20033;-66
2023/08/13 00:55:35;;;;;;;7.93;1.80;;;;;;;25.74;45.19;101494.41;5031592;28;20436;-66
2023/08/13 00:58:01;;;;;;;7.43;1.92;;;;;;;25.72;44.50;101501.19;5031419;28;20112;-65
2023/08/13 01:00:27;;;;;;;10.65;2.63;;;;;;;25.69;45.10;101501.59;5031655;28;20430;-66
2023/08/13 01:02:52;;;;;;;6.80;1.98;;;;;;;25.65;45.18;101498.47;5031384;28;20026;-65
2023/08/13 01:05:19;;;;;;;4.97;2.00;;;;;;;25.63;45.32;101497.81;5031863;28;20143;-66
2023/08/13 01:07:54;;;;;;;4.00;1.40;;;;;;;25.62;45.19;101503.53;5031497;28;20121;-66
2023/08/13 01:10:35;;;;;;;4.43;1.65;;;;;;;25.58;45.66;101503.09;5031524;28;20025;-67
2023/08/13 01:13:24;;;;;;;8.63;1.80;;;;;;;25.53;45.63;101508.38;5031615;28;20041;-65
2023/08/13 01:15:51;;;;;;;4.25;1.48;;;;;;;25.49;45.57;101511.75;5031489;28;20034;-66
2023/08/13 01:18:17;;;;;;;6.90;2.35;;;;;;;25.43;45.57;101505.19;5031295;28;20036;-66
2023/08/13 01:20:43;;;;;;;5.00;1.45;;;;;;;25.42;45.32;101514.44;5014982;28;20091;-65
2023/08/13 01:23:09;;;;;;;3.67;1.50;;;;;;;25.38;45.81;101510.44;5032547;28;20038;-67
2023/08/13 01:25:35;;;;;;;8.00;1.83;;;;;;;25.32;45.70;101506.63;5031464;28;20036;-66
2023/08/13 01:28:08;;;;;;;4.90;1.63;;;;;;;25.28;45.75;101504.50;5032790;28;20048;-66
2023/08/13 01:30:41;;;;;;;9.80;2.20;;;;;;;25.22;45.74;101503.44;5033247;28;20042;-66
2023/08/13 01:33:08;;;;;;;4.60;1.50;;;;;;;25.18;45.50;101501.34;5032724;28;20036;-67
2023/08/13 01:35:34;;;;;;;3.97;1.60;;;;;;;25.16;45.22;101508.91;5031277;28;20044;-66
2023/08/13 01:38:01;;;;;;;7.00;1.95;;;;;;;25.13;46.00;101514.81;5031235;28;20029;-66
2023/08/13 01:40:27;;;;;;;4.72;1.42;;;;;;;25.08;45.87;101509.09;5031316;28;20034;-66
2023/08/13 01:42:52;;;;;;;2.40;1.38;;;;;;;25.05;45.69;101506.78;5031255;28;20029;-65
2023/08/13 01:45:18;;;;;;;4.72;1.27;;;;;;;25.03;46.00;101507.00;5031074;28;20455;-65
2023/08/13 01:47:43;;;;;;;2.55;1.33;;;;;;;25.04;45.60;101513.34;5032449;28;20382;-65
2023/08/13 01:50:09;;;;;;;9.60;1.80;;;;;;;25.02;45.97;101510.78;5018359;28;20121;-66
2023/08/13 01:52:34;;;;;;;6.57;1.33;;;;;;;25.02;45.85;101507.19;5036349;28;20038;-66
2023/08/13 01:55:00;;;;;;;4.72;1.10;;;;;;;25.00;45.75;101504.66;5036302;28;20044;-66
2023/08/13 01:57:25;;;;;;;6.72;2.55;;;;;;;25.00;45.75;101503.81;5036249;28;20400;-65
2023/08/13 01:59:51;;;;;;;8.05;1.10;;;;;;;25.00;45.38;101501.94;5036121;28;20041;-67
2023/08/13 02:02:16;;;;;;;5.95;1.25;;;;;;;24.99;45.21;101499.38;5035993;28;20086;-66
2023/08/13 02:04:41;;;;;;;4.07;2.10;;;;;;;24.98;45.40;101494.97;5035952;28;20088;-66
2023/08/13 02:07:07;;;;;;;5.82;1.30;;;;;;;24.98;45.54;101504.03;5035954;28;20048;-66
2023/08/13 02:09:32;;;;;;;8.52;1.20;;;;;;;24.98;45.72;101503.19;5051415;28;20037;-66
2023/08/13 02:11:58;;;;;;;6.10;1.17;;;;;;;24.96;45.55;101499.81;5036174;28;20033;-66
2023/08/13 02:14:24;;;;;;;6.22;1.23;;;;;;;24.94;45.51;101499.16;5035798;28;20038;-66
2023/08/13 02:16:49;;;;;;;6.20;1.40;;;;;;;24.95;45.76;101500.84;5034687;28;20038;-66
2023/08/13 02:19:15;;;;;;;1.30;0.90;;;;;;;24.93;45.93;101508.47;5051173;28;20040;-66
2023/08/13 02:21:40;;;;;;;6.22;1.45;;;;;;;24.89;45.56;101497.91;5022419;28;20133;-66
2023/08/13 02:24:06;;;;;;;4.53;1.38;;;;;;;24.88;45.60;101493.47;5028375;28;20029;-66
2023/08/13 02:26:31;;;;;;;6.07;2.28;;;;;;;24.89;45.82;101497.03;5005269;28;20057;-66
2023/08/13 02:28:56;;;;;;;3.63;1.02;;;;;;;24.89;45.47;101497.91;5014679;28;20125;-66
2023/08/13 02:31:22;;;;;;;3.63;1.08;;;;;;;24.92;45.21;101493.03;5014761;28;20092;-65
2023/08/13 02:33:47;;;;;;;3.47;1.27;;;;;;;24.91;45.42;101483.97;5015882;28;20416;-66
2023/08/13 02:36:12;;;;;;;5.95;1.17;;;;;;;24.89;45.54;101486.94;5015800;28;20037;-65
2023/08/13 02:38:38;;;;;;;7.28;1.40;;;;;;;24.86;45.69;101481.88;5014519;28;20092;-67
2023/08/13 02:41:03;;;;;;;2.50;1.58;;;;;;;24.85;45.50;101477.41;5014445;28;20489;-66
2023/08/13 02:43:48;;;;;;;4.75;1.17;;;;;;;24.84;45.52;101478.50;5014518;28;20401;-66
2023/08/13 02:46:13;;;;;;;5.78;2.60;;;;;;;24.84;45.29;101474.91;4997831;28;20042;-66
2023/08/13 02:48:39;;;;;;;2.38;0.93;;;;;;;24.80;45.30;101477.19;5015400;28;20040;-65
2023/08/13 02:51:04;;;;;;;8.55;1.63;;;;;;;24.78;45.67;101478.44;5015642;28;20029;-66
2023/08/13 02:53:29;;;;;;;4.88;0.95;;;;;;;24.73;45.45;101481.81;5015398;28;20557;-65
2023/08/13 02:55:55;;;;;;;6.88;1.52;;;;;;;24.69;45.44;101466.81;5030805;28;20485;-65
2023/08/13 02:58:20;;;;;;;3.45;1.08;;;;;;;24.69;45.85;101474.16;5030413;28;20037;-66
2023/08/13 03:00:45;;;;;;;4.47;1.35;;;;;;;24.61;45.76;101464.25;5014850;28;20034;-66
2023/08/13 03:03:11;;;;;;;4.55;1.20;;;;;;;24.60;45.88;101475.41;5013951;28;20092;-65
2023/08/13 03:05:36;;;;;;;1.55;0.68;;;;;;;24.54;45.66;101468.03;5015130;28;20400;-67
2023/08/13 03:08:02;;;;;;;6.85;1.08;;;;;;;24.51;46.09;101468.44;4997354;28;20092;-66
2023/08/13 03:10:27;;;;;;;4.88;1.73;;;;;;;24.43;45.74;101466.69;5014281;28;20046;-65
2023/08/13 03:12:52;;;;;;;4.80;1.25;;;;;;;24.39;45.89;101473.66;5013944;28;20498;-66
2023/08/13 03:15:18;;;;;;;6.75;1.08;;;;;;;24.32;45.57;101472.75;5015096;28;20096;-65
2023/08/13 03:17:43;;;;;;;3.25;0.82;;;;;;;24.30;45.98;101480.34;4981171;28;20065;-66
2023/08/13 03:20:09;;;;;;;9.75;1.48;;;;;;;24.25;46.06;101477.38;5031303;28;20452;-66
2023/08/13 03:22:34;;;;;;;2.65;0.80;;;;;;;24.21;45.99;101481.53;5017127;28;20534;-66
2023/08/13 03:25:00;;;;;;;3.38;1.13;;;;;;;24.17;45.90;101477.53;5015574;28;20416;-66
2023/08/13 03:27:25;;;;;;;1.38;0.80;;;;;;;24.10;45.95;101473.91;5016895;28;20404;-66
2023/08/13 03:29:51;;;;;;;9.38;1.33;;;;;;;24.06;46.50;101478.06;5013776;28;20041;-71
2023/08/13 03:32:16;;;;;;;5.05;1.23;;;;;;;24.01;45.66;101480.56;5016966;28;20029;-66
2023/08/13 03:34:41;;;;;;;6.40;0.90;;;;;;;23.93;46.17;101467.00;5018294;28;20034;-66
2023/08/13 03:37:07;;;;;;;7.50;1.25;;;;;;;23.88;46.40;101472.25;5014942;28;20164;-65
2023/08/13 03:39:32;;;;;;;1.92;0.70;;;;;;;23.82;46.23;101473.03;4997115;28;20034;-66
2023/08/13 03:41:57;;;;;;;2.38;1.00;;;;;;;23.76;46.68;101471.94;5014907;28;20030;-65
2023/08/13 03:44:23;;;;;;;3.28;0.95;;;;;;;23.70;46.28;101467.31;4997161;28;20034;-65
2023/08/13 03:46:48;;;;;;;5.28;0.90;;;;;;;23.66;46.19;101475.06;5015146;28;20032;-65
2023/08/13 03:49:13;;;;;;;2.10;0.95;;;;;;;23.61;46.74;101476.69;5014388;28;20048;-65
2023/08/13 03:51:39;;;;;;;1.77;0.90;;;;;;;23.59;46.94;101484.25;5013184;28;20409;-66
2023/08/13 03:54:04;;;;;;;5.25;1.45;;;;;;;23.54;46.73;101483.97;5014104;28;20034;-65
2023/08/13 03:56:30;;;;;;;2.85;1.40;;;;;;;23.51;46.74;101485.22;5014312;28;20038;-65
2023/08/13 03:58:55;;;;;;;4.65;1.58;;;;;;;23.48;46.56;101484.81;5013189;28;20056;-66
2023/08/13 04:01:21;;;;;;;6.82;1.20;;;;;;;23.45;46.97;101479.72;5014220;28;20037;-66
2023/08/13 04:03:46;;;;;;;4.55;1.13;;;;;;;23.44;46.77;101484.34;5014150;28;20026;-66
2023/08/13 04:06:11;;;;;;;1.95;1.10;;;;;;;23.43;46.60;101481.78;5014006;28;20061;-66
2023/08/13 04:08:37;;;;;;;5.35;1.90;;;;;;;23.41;47.00;101484.72;5012781;28;20045;-66
2023/08/13 04:11:02;;;;;;;6.43;1.10;;;;;;;23.36;47.24;101481.72;5013190;28;20520;-65
2023/08/13 04:13:27;;;;;;;5.30;1.10;;;;;;;23.39;47.61;101489.56;5012691;28;20404;-65
2023/08/13 04:15:53;;;;;;;5.90;1.35;;;;;;;23.38;47.29;101485.13;5013873;28;20030;-66
2023/08/13 04:18:18;;;;;;;6.32;1.30;;;;;;;23.36;47.05;101480.84;5012749;28;20038;-66
2023/08/13 04:20:44;;;;;;;6.20;1.50;;;;;;;23.34;47.62;101481.03;5012376;28;20121;-66
2023/08/13 04:23:09;;;;;;;6.38;1.20;;;;;;;23.32;47.23;101479.53;5012460;28;20041;-66
2023/08/13 04:25:34;;;;;;;6.03;1.98;;;;;;;23.32;47.61;101474.94;5013772;28;20038;-66
2023/08/13 04:28:00;;;;;;;5.85;1.38;;;;;;;23.33;46.81;101476.63;5012370;28;20046;-66
2023/08/13 04:30:25;;;;;;;5.45;1.48;;;;;;;23.33;47.80;101482.09;5013611;28;20449;-66
2023/08/13 04:32:55;;;;;;;6.47;1.25;;;;;;;23.36;47.85;101476.25;4995823;28;20042;-66
2023/08/13 04:35:21;;;;;;;2.33;1.10;;;;;;;23.38;47.83;101485.13;5012375;28;20040;-66
2023/08/13 04:37:46;;;;;;;3.10;0.85;;;;;;;23.40;47.87;101473.97;5012333;28;20038;-67
2023/08/13 04:40:12;;;;;;;5.88;1.48;;;;;;;23.44;47.67;101484.34;5012105;28;20065;-66
2023/08/13 04:42:37;;;;;;;11.00;1.88;;;;;;;23.46;47.66;101487.72;5013285;28;20405;-65
2023/08/13 04:45:03;;;;;;;12.57;1.38;;;;;;;23.52;46.90;101492.41;5012000;28;20080;-67
2023/08/13 04:47:28;;;;;;;6.57;1.20;;;;;;;23.54;47.28;101481.25;5013302;28;20037;-66
2023/08/13 04:49:54;;;;;;;6.03;1.50;;;;;;;23.58;47.16;101486.16;5013227;28;20089;-66
2023/08/13 04:52:19;;;;;;;7.28;0.90;;;;;;;23.59;46.99;101482.34;5013279;28;20124;-66
2023/08/13 04:54:46;;;;;;;3.90;1.63;;;;;;;23.62;47.44;101481.94;5013788;28;20121;-66
2023/08/13 04:57:11;;;;;;;1.20;0.90;;;;;;;23.63;47.62;101480.91;4996152;28;20034;-67
2023/08/13 04:59:37;;;;;;;7.05;1.30;;;;;;;23.66;47.79;101490.63;5011920;28;20030;-66
2023/08/13 05:02:03;;;;;;;3.60;1.40;;;;;;;23.66;47.86;101483.25;5028359;28;20041;-66
2023/08/13 05:04:28;;;;;;;6.03;1.45;;;;;;;23.68;48.13;101485.78;5013220;28;20033;-66
2023/08/13 05:06:54;;;;;;;4.90;1.08;;;;;;;23.72;47.41;101476.16;5011788;28;20413;-66
2023/08/13 05:09:19;;;;;;;3.40;1.00;;;;;;;23.71;47.52;101469.81;5028239;28;20084;-66
2023/08/13 05:11:45;;;;;;;35.58;3.40;;;;;;;23.74;47.57;101483.09;5012734;28;20049;-66
2023/08/13 05:14:10;;;;;;;4.75;1.25;;;;;;;23.77;47.87;101479.97;5013298;28;20029;-66
2023/08/13 05:16:35;;;;;;;5.22;1.10;;;;;;;23.81;47.88;101485.06;5012914;28;20105;-66
2023/08/13 05:19:01;;;;;;;5.28;1.23;;;;;;;23.87;47.43;101490.56;5028195;28;20018;-66
2023/08/13 05:21:26;;;;;;;4.15;1.15;;;;;;;23.89;47.64;101477.53;5028112;28;20056;-66
2023/08/13 05:23:51;;;;;;;6.32;1.35;;;;;;;23.96;48.05;101483.03;5015165;28;20093;-66
2023/08/13 05:26:17;;;;;;;3.05;1.08;;;;;;;24.01;47.42;101486.03;5015595;28;20425;-66
2023/08/13 05:28:42;;;;;;;3.85;1.67;;;;;;;24.05;48.03;101476.38;5015629;28;20123;-66
2023/08/13 05:31:07;;;;;;;8.13;1.48;;;;;;;24.12;47.81;101488.25;5015485;28;20026;-66
2023/08/13 05:33:33;;;;;;;7.57;1.40;;;;;;;24.18;47.43;101487.41;5031898;28;20485;-66
2023/08/13 05:35:59;;;;;;;6.53;1.27;;;;;;;24.19;47.91;101484.50;5016715;28;20544;-66
2023/08/13 05:38:24;;;;;;;7.15;1.30;;;;;;;24.32;47.93;101489.19;5016938;28;20033;-66
2023/08/13 05:40:49;;;;;;;3.85;1.23;;;;;;;24.40;47.67;101489.00;5016570;28;20050;-66
2023/08/13 05:43:15;;;;;;;4.75;1.17;;;;;;;24.45;47.70;101494.75;5016557;28;20022;-65
2023/08/13 05:45:41;;;;;;;16.38;3.30;;;;;;;24.50;47.55;101497.72;5015145;28;20080;-66
2023/08/13 05:48:06;;;;;;;6.15;1.40;;;;;;;24.56;47.14;101496.06;5015179;28;20056;-66
2023/08/13 05:50:32;;;;;;;3.72;1.15;;;;;;;24.60;47.58;101492.69;5015024;28;20064;-66
2023/08/13 05:52:57;;;;;;;5.03;1.50;;;;;;;24.65;47.32;101495.66;4998875;28;20025;-66
2023/08/13 05:55:22;;;;;;;6.20;2.10;;;;;;;24.73;47.18;101497.38;4998670;28;20508;-66
2023/08/13 05:57:48;;;;;;;6.57;1.40;;;;;;;24.77;47.26;101494.03;5015369;28;20425;-67
2023/08/13 06:00:14;;;;;;;6.63;1.10;;;;;;;24.82;47.66;101486.06;5016208;28;20026;-66
2023/08/13 06:02:39;;;;;;;4.13;1.30;;;;;;;24.86;47.71;101492.81;5014864;28;20060;-66
2023/08/13 06:05:06;;;;;;;4.82;1.15;;;;;;;24.95;47.42;101498.13;4998873;28;20101;-66
2023/08/13 06:07:33;;;;;;;3.50;1.10;;;;;;;24.99;47.84;101502.97;4998612;28;20018;-66
2023/08/13 06:09:59;;;;;;;7.88;2.38;;;;;;;25.05;47.45;101496.66;5016128;28;20536;-67
2023/08/13 06:12:25;;;;;;;2.60;1.45;;;;;;;25.10;47.55;101494.13;5016345;28;20038;-66
2023/08/13 06:14:50;;;;;;;4.47;1.25;;;;;;;25.16;47.10;101500.69;5014645;28;20397;-66
2023/08/13 06:17:15;;;;;;;8.35;2.20;;;;;;;25.19;47.59;101497.53;5016195;28;20125;-66
2023/08/13 06:19:42;;;;;;;4.75;1.35;;;;;;;25.22;46.89;101502.59;5034564;28;20083;-66
2023/08/13 06:22:08;;;;;;;3.55;1.30;;;;;;;25.24;47.15;101495.84;5035692;28;20132;-66
2023/08/13 06:24:33;;;;;;;4.63;1.55;;;;;;;25.28;46.76;101496.28;5034440;28;20108;-65
2023/08/13 06:26:59;;;;;;;6.55;1.63;;;;;;;25.31;47.42;101491.22;5034346;28;20109;-65
2023/08/13 06:29:24;;;;;;;4.47;1.30;;;;;;;25.33;47.10;101491.00;5034233;28;20033;-66
2023/08/13 06:31:49;;;;;;;4.80;1.20;;;;;;;25.37;47.59;101476.69;5035410;28;20117;-66
2023/08/13 06:34:15;;;;;;;3.92;1.33;;;;;;;25.56;46.45;101480.50;5033376;28;20045;-67
2023/08/13 06:36:40;;;;;;;5.22;1.45;;;;;;;25.58;46.95;101481.13;5035641;28;20091;-65
2023/08/13 06:39:06;;;;;;;3.42;1.27;;;;;;;25.65;47.03;101479.25;5034219;28;20087;-66
2023/08/13 06:41:31;;;;;;;6.60;1.38;;;;;;;25.86;46.51;101469.91;5034344;28;20030;-67
2023/08/13 06:43:56;;;;;;;3.63;1.40;;;;;;;26.28;46.70;101476.81;5017720;28;20381;-67
2023/08/13 06:46:22;;;;;;;2.58;1.30;;;;;;;26.57;45.89;101470.81;5034116;28;20034;-66
2023/08/13 06:48:48;;;;;;;4.80;2.20;;;;;;;26.94;46.26;101466.41;5035242;28;20112;-66
2023/08/13 06:51:13;;;;;;;3.40;1.33;;;;;;;27.16;45.50;101476.00;5017407;28;20110;-66
2023/08/13 06:53:39;;;;;;;8.15;1.90;;;;;;;27.31;45.14;101473.75;5033856;28;20493;-66
2023/08/13 06:56:05;;;;;;;3.38;1.20;;;;;;;27.52;44.89;101480.84;5033843;28;20033;-66
2023/08/13 06:58:30;;;;;;;3.40;1.27;;;;;;;27.84;44.71;101473.31;5016600;28;20137;-66
2023/08/13 07:00:56;;;;;;;7.30;1.40;;;;;;;28.11;44.45;101472.88;5033295;28;20116;-66
2023/08/13 07:03:37;;;;;;;4.03;1.40;;;;;;;28.44;43.96;101485.44;5039472;28;20017;-65
2023/08/13 07:06:02;;;;;;;5.95;1.85;;;;;;;28.71;43.38;101470.25;5038691;28;20026;-67
2023/08/13 07:08:28;;;;;;;4.32;1.42;;;;;;;29.16;43.23;101477.03;5034958;28;20116;-67
2023/08/13 07:10:53;;;;;;;10.68;2.13;;;;;;;29.37;43.29;101459.09;5033611;28;20053;-69
2023/08/13 07:13:18;;;;;;;4.18;1.20;;;;;;;29.57;43.04;101472.56;5034857;28;20501;-67
2023/08/13 07:15:44;;;;;;;6.47;1.83;;;;;;;29.80;42.99;101472.63;5034826;28;20033;-62
2023/08/13 07:18:10;;;;;;;6.47;1.77;;;;;;;30.06;42.41;101480.44;5033522;28;20057;-62
2023/08/13 07:20:35;;;;;;;2.90;1.20;;;;;;;30.26;42.15;101475.38;5033258;28;20033;-61
2023/08/13 07:23:00;;;;;;;12.45;2.85;;;;;;;30.38;41.96;101467.91;5034411;28;20121;-62
2023/08/13 07:25:26;;;;;;;3.40;1.10;;;;;;;30.49;41.79;101469.81;5033295;28;20037;-65
2023/08/13 07:27:52;;;;;;;8.50;1.38;;;;;;;30.38;42.06;101462.38;5033242;28;20043;-66
2023/08/13 07:30:18;;;;;;;3.25;1.20;;;;;;;30.38;41.66;101467.91;5016655;28;20038;-65
2023/08/13 07:32:44;;;;;;;4.43;1.17;;;;;;;30.35;41.38;101462.84;5033124;28;20443;-62
2023/08/13 07:35:13;;;;;;;4.43;1.25;;;;;;;30.44;41.00;101472.47;5034290;28;20100;-63
2023/08/13 07:37:38;;;;;;;4.35;1.05;;;;;;;30.49;41.26;101468.97;5032691;28;20451;-62
2023/08/13 07:40:07;;;;;;;8.18;2.13;;;;;;;30.73;40.98;101464.22;5032910;28;20124;-64
2023/08/13 07:42:36;;;;;;;5.57;1.00;;;;;;;30.94;40.59;101456.06;5034464;28;20104;-62
2023/08/13 07:45:01;;;;;;;4.07;1.40;;;;;;;31.14;40.31;101455.59;5032719;28;20392;-60
2023/08/13 07:47:27;;;;;;;6.18;1.23;;;;;;;31.36;40.90;101458.47;5033207;28;20026;-62
2023/08/13 07:49:52;;;;;;;3.00;1.55;;;;;;;31.35;40.43;101463.16;5034118;28;20036;-62
2023/08/13 07:52:18;;;;;;;4.68;1.25;;;;;;;31.29;40.21;101458.66;5033996;28;20061;-62
2023/08/13 07:54:43;;;;;;;3.13;1.23;;;;;;;31.29;39.85;101464.19;5032859;28;20042;-61
2023/08/13 07:57:09;;;;;;;1.98;0.85;;;;;;;31.36;40.20;101448.25;5016214;28;20401;-61
2023/08/13 07:59:34;;;;;;;6.25;2.63;;;;;;;31.42;39.78;101455.53;5032545;28;20408;-61
2023/08/13 08:02:01;;;;;;;3.95;1.33;;;;;;;31.51;39.69;101453.22;5032595;28;20032;-61
2023/08/13 08:04:27;;;;;;;5.35;1.05;;;;;;;31.57;39.06;101449.47;5032708;28;20029;-61
2023/08/13 08:06:52;;;;;;;2.25;0.98;;;;;;;31.80;39.46;101451.22;5033593;28;20038;-63
2023/08/13 08:09:17;;;;;;;8.43;1.77;;;;;;;31.76;39.18;101452.78;5033638;28;20041;-62
2023/08/13 08:11:43;;;;;;;4.82;1.42;;;;;;;31.67;39.24;101449.59;5033523;28;20551;-62
2023/08/13 08:14:08;;;;;;;4.50;1.65;;;;;;;31.58;39.54;101460.28;5033610;28;20034;-61
2023/08/13 08:16:34;;;;;;;5.60;2.05;;;;;;;31.50;39.72;101454.31;5032121;28;20398;-61
2023/08/13 08:18:59;;;;;;;2.90;1.00;;;;;;;31.45;39.52;101457.81;5033666;28;20044;-61
2023/08/13 08:21:24;;;;;;;6.03;1.85;;;;;;;31.35;39.32;101460.41;5032303;28;20047;-62
2023/08/13 08:23:50;;;;;;;5.28;1.58;;;;;;;31.30;39.29;101459.47;5032175;28;20033;-61
2023/08/13 08:26:15;;;;;;;7.15;1.90;;;;;;;31.24;39.19;101455.78;5033472;28;20059;-63
2023/08/13 08:28:40;;;;;;;3.80;1.10;;;;;;;31.16;39.04;101453.41;5033414;28;20033;-62
2023/08/13 08:31:06;;;;;;;7.70;1.60;;;;;;;31.07;39.20;101460.47;5032146;28;20168;-62
2023/08/13 08:33:31;;;;;;;5.13;1.02;;;;;;;31.05;39.42;101459.84;5032115;28;20045;-62
2023/08/13 08:35:56;;;;;;;6.03;2.00;;;;;;;31.09;38.78;101464.66;5031573;28;20486;-65
2023/08/13 08:38:22;;;;;;;6.05;1.77;;;;;;;31.21;39.29;101449.91;5032015;28;20116;-65
2023/08/13 08:40:48;;;;;;;4.70;1.45;;;;;;;31.29;38.76;101453.13;5031837;28;20138;-65
2023/08/13 08:43:15;;;;;;;4.20;1.40;;;;;;;31.42;38.51;101451.94;5033181;28;20040;-65
2023/08/13 08:45:41;;;;;;;4.47;1.33;;;;;;;31.57;38.25;101444.75;5031869;28;20120;-65
2023/08/13 08:48:07;;;;;;;6.88;1.08;;;;;;;31.67;38.07;101444.91;5031822;28;20155;-65
2023/08/13 08:50:35;;;;;;;3.53;1.50;;;;;;;31.67;38.32;101442.13;5031950;28;20036;-65
2023/08/13 08:53:00;;;;;;;4.75;1.27;;;;;;;31.64;37.94;101434.31;5031437;28;20068;-65
2023/08/13 08:55:26;;;;;;;5.75;1.13;;;;;;;31.67;38.08;101444.91;5015287;28;20072;-65
2023/08/13 08:57:54;;;;;;;3.67;0.88;;;;;;;31.73;38.06;101437.50;4998447;28;20072;-65
2023/08/13 09:00:19;;;;;;;4.57;1.30;;;;;;;31.88;38.10;101428.59;5031525;28;20120;-65
2023/08/13 09:02:44;;;;;;;9.10;1.20;;;;;;;32.02;37.88;101430.75;5032856;28;20115;-65
2023/08/13 09:05:10;;;;;;;6.10;1.40;;;;;;;32.19;36.66;101436.28;5031535;28;20038;-65
2023/08/13 09:07:35;;;;;;;3.95;0.95;;;;;;;32.27;37.45;101430.28;5031972;28;20116;-65
2023/08/13 09:10:04;;;;;;;7.00;1.40;;;;;;;32.40;37.36;101427.09;5031770;28;20033;-65
2023/08/13 09:12:34;;;;;;;3.45;1.15;;;;;;;32.59;36.06;101428.47;5031876;28;20092;-65
2023/08/13 09:15:03;;;;;;;4.93;2.15;;;;;;;32.71;35.78;101428.31;5031600;28;20034;-65
2023/08/13 09:17:29;;;;;;;8.30;1.52;;;;;;;32.89;35.97;101425.16;5015195;28;20497;-66
2023/08/13 09:19:56;;;;;;;6.95;2.70;;;;;;;33.07;35.97;101416.50;5032670;28;20059;-65
2023/08/13 09:22:21;;;;;;;7.63;2.25;;;;;;;33.36;36.00;101419.81;5015012;28;20123;-65
2023/08/13 09:24:48;;;;;;;4.43;1.30;;;;;;;33.61;34.75;101422.81;5031785;28;20436;-65
2023/08/13 09:27:14;;;;;;;6.47;2.83;;;;;;;33.85;35.19;101415.75;5031602;28;20492;-65
2023/08/13 09:29:41;;;;;;;4.40;1.05;;;;;;;34.18;35.03;101420.13;5031307;28;20033;-65
2023/08/13 09:32:06;;;;;;;7.68;1.42;;;;;;;34.22;35.06;101412.91;5011371;28;20034;-64
2023/08/13 09:34:35;;;;;;;6.18;1.48;;;;;;;34.26;34.23;101413.19;5011670;28;20400;-61
2023/08/13 09:37:01;;;;;;;2.45;1.13;;;;;;;34.35;34.90;101414.34;5011967;28;20034;-62
2023/08/13 09:39:28;;;;;;;2.83;1.50;;;;;;;34.44;34.05;101402.41;4995407;28;20113;-62
2023/08/13 09:41:54;;;;;;;5.88;1.15;;;;;;;34.64;34.57;101398.88;4995221;28;20026;-62
2023/08/13 09:44:21;;;;;;;4.45;1.60;;;;;;;34.83;34.04;101400.03;4995069;28;20085;-62
2023/08/13 09:47:02;;;;;;;5.30;1.27;;;;;;;35.17;33.62;101385.59;5011998;28;20038;-61
2023/08/13 09:49:32;;;;;;;5.15;1.30;;;;;;;35.29;33.21;101388.94;4995350;28;20026;-62
2023/08/13 09:52:02;;;;;;;2.25;1.27;;;;;;;35.16;33.29;101395.06;5012815;28;20044;-62
2023/08/13 09:55:07;;;;;;;4.15;1.25;;;;;;;35.19;32.67;101387.00;5011565;28;20441;-62
2023/08/13 09:57:34;;;;;;;6.50;1.15;;;;;;;35.36;33.10;101379.19;5011683;28;20490;-62
2023/08/13 10:00:00;;;;;;;6.22;1.50;;;;;;;35.62;32.19;101378.03;5011442;28;20570;-62
2023/08/13 10:02:26;;;;;;;3.80;1.40;;;;;;;35.93;32.21;101378.78;5012713;28;20034;-62
2023/08/13 10:04:52;;;;;;;1.75;0.80;;;;;;;36.06;31.79;101372.66;5011302;28;20069;-62
2023/08/13 10:07:18;;;;;;;3.90;1.00;;;;;;;36.01;31.92;101380.19;5011089;28;20088;-61
2023/08/13 10:09:44;;;;;;;5.25;1.40;;;;;;;35.74;32.19;101374.09;5012799;28;20054;-62
2023/08/13 10:12:10;;;;;;;4.68;2.63;;;;;;;35.48;32.22;101367.75;5031441;28;20123;-62
2023/08/13 10:14:36;;;;;;;3.70;0.95;;;;;;;35.27;31.87;101368.88;5014877;28;20474;-62
2023/08/13 10:17:06;;;;;;;5.35;1.25;;;;;;;35.30;31.79;101368.31;5016119;28;20026;-62
2023/08/13 10:19:35;;;;;;;5.18;1.83;;;;;;;35.49;32.51;101366.59;5013696;28;20512;-62
2023/08/13 10:22:01;;;;;;;3.58;1.00;;;;;;;35.82;31.79;101360.41;5016002;28;20048;-62
2023/08/13 10:24:30;;;;;;;6.32;1.85;;;;;;;36.03;31.53;101367.66;5015916;28;20030;-62
2023/08/13 10:26:59;;;;;;;4.57;1.02;;;;;;;36.36;30.93;101368.88;5014871;28;20397;-62
2023/08/13 10:29:34;;;;;;;6.28;1.23;;;;;;;36.93;30.42;101365.47;5034042;28;20117;-62
2023/08/13 10:32:01;;;;;;;4.35;0.85;;;;;;;37.36;30.44;101352.50;5035665;28;20029;-62
2023/08/13 10:34:39;;;;;;;4.90;1.40;;;;;;;37.57;30.12;101353.19;5034204;28;20113;-62
2023/08/13 10:37:14;;;;;;;3.08;1.00;;;;;;;37.83;29.89;101352.56;5034317;28;20116;-62
2023/08/13 10:39:43;;;;;;;4.82;1.60;;;;;;;38.61;30.10;101359.72;5035632;28;20033;-62
2023/08/13 10:42:27;;;;;;;6.97;1.70;;;;;;;38.92;29.42;101352.50;5018574;28;20065;-62
2023/08/13 10:45:09;;;;;;;4.03;1.27;;;;;;;38.90;29.01;101337.97;5024071;28;20100;-65
2023/08/13 10:47:37;;;;;;;7.15;1.33;;;;;;;39.08;28.77;101339.91;5034707;28;20036;-65
2023/08/13 10:50:13;;;;;;;6.10;1.58;;;;;;;39.50;28.38;101342.53;5033896;28;20034;-64
2023/08/13 10:52:38;;;;;;;2.92;1.40;;;;;;;38.88;28.68;101343.06;5017093;28;20115;-64
2023/08/13 10:55:04;;;;;;;3.38;1.25;;;;;;;38.22;29.34;101343.97;5034157;28;20481;-64
2023/08/13 10:57:30;;;;;;;2.30;0.98;;;;;;;37.67;29.94;101348.28;5016908;28;20033;-64
2023/08/13 10:59:56;;;;;;;3.42;0.88;;;;;;;37.12;29.68;101346.88;5018588;28;20495;-64
2023/08/13 11:02:22;;;;;;;8.45;1.30;;;;;;;36.61;29.76;101345.56;5040699;28;20029;-64
2023/08/13 11:04:47;;;;;;;7.90;1.50;;;;;;;36.14;30.35;101344.16;5040629;28;20533;-64
2023/08/13 11:07:13;;;;;;;5.40;1.02;;;;;;;35.75;30.26;101345.94;5042520;28;20029;-64
2023/08/13 11:09:40;;;;;;;7.35;1.20;;;;;;;35.40;30.81;101334.88;5023979;28;20043;-64
2023/08/13 11:12:07;;;;;;;5.00;1.30;;;;;;;35.03;31.47;101333.22;5039365;28;20017;-64
2023/08/13 11:14:33;;;;;;;3.65;1.25;;;;;;;34.87;31.88;101342.66;5021090;28;20068;-64
2023/08/13 11:16:59;;;;;;;5.30;1.40;;;;;;;35.54;31.23;101335.97;5036689;28;20026;-64
2023/08/13 11:19:24;;;;;;;5.45;1.02;;;;;;;36.25;30.12;101341.28;5034826;28;20044;-64
2023/08/13 11:21:51;;;;;;;6.75;1.30;;;;;;;36.70;29.90;101335.47;5017109;28;20481;-64